Hauptseite
METAR-TAF:

METAR-TAF

Flughäfen :

Chapecó, Santa Catarina, Brasilien

Breite: 27-08-02S, Länge: 052-39-43W, Höhe: 654 m

Beobachtung

Neuester Wetterbericht von vor 9 Stunden und 8 Minuten, um 11:00 UTC
Wind 12 kt aus Südost
Temperatur 21°C
Luftfeuchtigkeit 88%
Luftdruck 1018 hPa
Sichtweite 10 km oder mehr
Aufgelockert bewölkt in der Höhe von 900 ft

METAR: SBCH 181100Z 13012KT 9999 SCT009 21/19 Q1018

Zeit: 18:08 (20:08 UTC)


TAF: fehlend

Wetterbeobachtungen und Prognosen von mehr als 4000 Flughäfen (METAR und TAF Bericht).

Die verfügbaren Stationen werden durch gelbe und rote Markierungen auf der Karte dargestellt.

Führen Sie die Maus auf sie, um den Namen der Station zu sehen.

Darauf klicken, um die Beobachtung von Wetterbeobachtungen und Prognosen zu sehen.

Um die Karte zu ändern : klicken Sie auf den grünen Tasten mit einem schwarzen Kreuz Zum Vergrößern, auf den grünen Button mit einem Gedankenstrich zu verkleinern, oder auf die grünen Pfeile für benachbarte Karten.


METAR-TAF: